sensor_id;sensor_type;location;lat;lon;timestamp;P1;durP1;ratioP1;P2;durP2;ratioP2
54945;SDS011;40846;44.788;20.486;2023-02-28T00:04:05;38.90;;;19.83;;
54945;SDS011;40846;44.788;20.486;2023-02-28T00:06:33;43.25;;;19.27;;
54945;SDS011;40846;44.788;20.486;2023-02-28T00:09:02;49.60;;;20.55;;
54945;SDS011;40846;44.788;20.486;2023-02-28T00:11:28;31.00;;;17.77;;
54945;SDS011;40846;44.788;20.486;2023-02-28T00:13:54;65.90;;;27.92;;
54945;SDS011;40846;44.788;20.486;2023-02-28T00:16:21;46.53;;;21.15;;
54945;SDS011;40846;44.788;20.486;2023-02-28T00:18:48;51.80;;;23.35;;
54945;SDS011;40846;44.788;20.486;2023-02-28T00:21:15;51.58;;;22.33;;
54945;SDS011;40846;44.788;20.486;2023-02-28T00:23:41;54.95;;;23.35;;
54945;SDS011;40846;44.788;20.486;2023-02-28T00:26:15;110.10;;;37.17;;
54945;SDS011;40846;44.788;20.486;2023-02-28T00:28:43;57.50;;;24.88;;
54945;SDS011;40846;44.788;20.486;2023-02-28T00:31:09;56.40;;;27.08;;
54945;SDS011;40846;44.788;20.486;2023-02-28T00:33:36;50.17;;;21.15;;
54945;SDS011;40846;44.788;20.486;2023-02-28T00:36:05;57.53;;;25.42;;
54945;SDS011;40846;44.788;20.486;2023-02-28T00:38:32;41.60;;;18.75;;
54945;SDS011;40846;44.788;20.486;2023-02-28T00:40:58;266.27;;;72.13;;
54945;SDS011;40846;44.788;20.486;2023-02-28T00:43:29;231.02;;;64.13;;
54945;SDS011;40846;44.788;20.486;2023-02-28T00:45:56;246.75;;;67.05;;
54945;SDS011;40846;44.788;20.486;2023-02-28T00:48:23;82.85;;;33.00;;
54945;SDS011;40846;44.788;20.486;2023-02-28T00:50:49;49.42;;;23.63;;
54945;SDS011;40846;44.788;20.486;2023-02-28T00:53:15;78.60;;;30.83;;
54945;SDS011;40846;44.788;20.486;2023-02-28T00:55:41;65.85;;;25.80;;
54945;SDS011;40846;44.788;20.486;2023-02-28T01:01:16;72.95;;;32.33;;
54945;SDS011;40846;44.788;20.486;2023-02-28T01:03:47;36.15;;;20.23;;
54945;SDS011;40846;44.788;20.486;2023-02-28T01:06:17;75.75;;;34.55;;
54945;SDS011;40846;44.788;20.486;2023-02-28T01:08:43;54.13;;;27.70;;
54945;SDS011;40846;44.788;20.486;2023-02-28T01:11:10;43.60;;;23.13;;
54945;SDS011;40846;44.788;20.486;2023-02-28T01:13:37;67.85;;;31.27;;
54945;SDS011;40846;44.788;20.486;2023-02-28T01:16:03;61.25;;;27.60;;
54945;SDS011;40846;44.788;20.486;2023-02-28T01:18:29;95.22;;;38.33;;
54945;SDS011;40846;44.788;20.486;2023-02-28T01:20:55;157.02;;;58.97;;
54945;SDS011;40846;44.788;20.486;2023-02-28T01:23:22;110.65;;;37.88;;
54945;SDS011;40846;44.788;20.486;2023-02-28T01:25:54;160.85;;;47.70;;
54945;SDS011;40846;44.788;20.486;2023-02-28T01:28:20;65.60;;;25.95;;
54945;SDS011;40846;44.788;20.486;2023-02-28T01:30:47;195.10;;;56.28;;
54945;SDS011;40846;44.788;20.486;2023-02-28T01:33:13;96.25;;;34.97;;
54945;SDS011;40846;44.788;20.486;2023-02-28T01:35:39;55.30;;;24.42;;
54945;SDS011;40846;44.788;20.486;2023-02-28T01:38:05;142.43;;;45.65;;
54945;SDS011;40846;44.788;20.486;2023-02-28T01:40:31;158.65;;;50.88;;
54945;SDS011;40846;44.788;20.486;2023-02-28T01:42:57;81.30;;;34.13;;
54945;SDS011;40846;44.788;20.486;2023-02-28T01:45:30;117.50;;;50.55;;
54945;SDS011;40846;44.788;20.486;2023-02-28T01:48:04;54.92;;;27.50;;
54945;SDS011;40846;44.788;20.486;2023-02-28T01:50:34;61.75;;;29.63;;
54945;SDS011;40846;44.788;20.486;2023-02-28T01:53:04;50.53;;;23.92;;
54945;SDS011;40846;44.788;20.486;2023-02-28T01:55:30;52.72;;;24.92;;
54945;SDS011;40846;44.788;20.486;2023-02-28T01:57:58;82.47;;;33.80;;
54945;SDS011;40846;44.788;20.486;2023-02-28T02:00:27;78.07;;;34.67;;
54945;SDS011;40846;44.788;20.486;2023-02-28T02:02:55;103.05;;;38.53;;
54945;SDS011;40846;44.788;20.486;2023-02-28T02:05:24;45.58;;;22.23;;
54945;SDS011;40846;44.788;20.486;2023-02-28T02:08:06;68.35;;;28.27;;
54945;SDS011;40846;44.788;20.486;2023-02-28T02:10:34;40.33;;;19.23;;
54945;SDS011;40846;44.788;20.486;2023-02-28T02:13:17;49.40;;;22.27;;
54945;SDS011;40846;44.788;20.486;2023-02-28T02:16:00;41.53;;;18.90;;
54945;SDS011;40846;44.788;20.486;2023-02-28T02:18:36;35.45;;;18.45;;
54945;SDS011;40846;44.788;20.486;2023-02-28T02:42:14;81.53;;;30.52;;
54945;SDS011;40846;44.788;20.486;2023-02-28T02:44:49;209.35;;;57.80;;
54945;SDS011;40846;44.788;20.486;2023-02-28T02:47:19;132.80;;;41.47;;
54945;SDS011;40846;44.788;20.486;2023-02-28T02:49:55;71.18;;;28.10;;
54945;SDS011;40846;44.788;20.486;2023-02-28T02:52:23;235.30;;;67.43;;
54945;SDS011;40846;44.788;20.486;2023-02-28T02:54:50;211.93;;;62.45;;
54945;SDS011;40846;44.788;20.486;2023-02-28T03:00:07;98.25;;;36.75;;
54945;SDS011;40846;44.788;20.486;2023-02-28T03:02:34;73.07;;;30.17;;
54945;SDS011;40846;44.788;20.486;2023-02-28T03:05:03;136.57;;;55.90;;
54945;SDS011;40846;44.788;20.486;2023-02-28T03:07:30;126.32;;;58.17;;
54945;SDS011;40846;44.788;20.486;2023-02-28T03:09:57;63.05;;;32.97;;
54945;SDS011;40846;44.788;20.486;2023-02-28T03:12:33;37.33;;;21.15;;
54945;SDS011;40846;44.788;20.486;2023-02-28T03:15:11;44.70;;;23.42;;
54945;SDS011;40846;44.788;20.486;2023-02-28T03:25:20;35.05;;;19.83;;
54945;SDS011;40846;44.788;20.486;2023-02-28T03:33:24;37.53;;;20.55;;
54945;SDS011;40846;44.788;20.486;2023-02-28T03:35:52;38.75;;;20.50;;
54945;SDS011;40846;44.788;20.486;2023-02-28T03:40:50;31.95;;;18.33;;
54945;SDS011;40846;44.788;20.486;2023-02-28T03:43:18;34.67;;;19.00;;
54945;SDS011;40846;44.788;20.486;2023-02-28T03:45:45;30.40;;;19.05;;
54945;SDS011;40846;44.788;20.486;2023-02-28T03:50:39;36.97;;;18.85;;
54945;SDS011;40846;44.788;20.486;2023-02-28T03:53:11;34.83;;;18.25;;
54945;SDS011;40846;44.788;20.486;2023-02-28T03:55:39;32.38;;;18.45;;
54945;SDS011;40846;44.788;20.486;2023-02-28T03:58:24;36.78;;;19.73;;
54945;SDS011;40846;44.788;20.486;2023-02-28T04:00:57;36.55;;;19.25;;
54945;SDS011;40846;44.788;20.486;2023-02-28T04:03:23;32.83;;;18.83;;
54945;SDS011;40846;44.788;20.486;2023-02-28T04:05:51;33.13;;;18.70;;
54945;SDS011;40846;44.788;20.486;2023-02-28T04:08:18;32.35;;;18.08;;
54945;SDS011;40846;44.788;20.486;2023-02-28T04:10:45;31.77;;;18.23;;
54945;SDS011;40846;44.788;20.486;2023-02-28T04:13:15;29.05;;;16.63;;
54945;SDS011;40846;44.788;20.486;2023-02-28T04:15:41;32.47;;;17.15;;
54945;SDS011;40846;44.788;20.486;2023-02-28T04:18:07;32.97;;;18.75;;
54945;SDS011;40846;44.788;20.486;2023-02-28T04:20:33;32.92;;;18.95;;
54945;SDS011;40846;44.788;20.486;2023-02-28T04:22:59;33.33;;;18.33;;
54945;SDS011;40846;44.788;20.486;2023-02-28T04:25:26;31.90;;;17.80;;
54945;SDS011;40846;44.788;20.486;2023-02-28T04:27:52;28.10;;;16.35;;
54945;SDS011;40846;44.788;20.486;2023-02-28T04:30:18;28.52;;;16.42;;
54945;SDS011;40846;44.788;20.486;2023-02-28T04:32:44;32.45;;;16.08;;
54945;SDS011;40846;44.788;20.486;2023-02-28T04:35:10;29.92;;;17.63;;
54945;SDS011;40846;44.788;20.486;2023-02-28T04:37:36;29.42;;;16.48;;
54945;SDS011;40846;44.788;20.486;2023-02-28T04:40:03;26.70;;;14.82;;
54945;SDS011;40846;44.788;20.486;2023-02-28T04:42:29;25.15;;;15.05;;
54945;SDS011;40846;44.788;20.486;2023-02-28T04:45:01;27.55;;;15.02;;
54945;SDS011;40846;44.788;20.486;2023-02-28T04:47:27;31.75;;;17.17;;
54945;SDS011;40846;44.788;20.486;2023-02-28T04:49:53;28.52;;;16.23;;
54945;SDS011;40846;44.788;20.486;2023-02-28T04:52:19;27.38;;;15.88;;
54945;SDS011;40846;44.788;20.486;2023-02-28T04:54:45;30.83;;;17.08;;
54945;SDS011;40846;44.788;20.486;2023-02-28T04:57:11;28.10;;;16.75;;
54945;SDS011;40846;44.788;20.486;2023-02-28T04:59:37;25.55;;;14.75;;
54945;SDS011;40846;44.788;20.486;2023-02-28T05:02:03;32.28;;;16.75;;
54945;SDS011;40846;44.788;20.486;2023-02-28T05:04:34;25.70;;;14.60;;
54945;SDS011;40846;44.788;20.486;2023-02-28T05:07:01;28.50;;;15.52;;
54945;SDS011;40846;44.788;20.486;2023-02-28T05:09:31;29.88;;;15.57;;
54945;SDS011;40846;44.788;20.486;2023-02-28T05:11:58;27.25;;;15.15;;
54945;SDS011;40846;44.788;20.486;2023-02-28T05:14:24;24.33;;;14.93;;
54945;SDS011;40846;44.788;20.486;2023-02-28T05:16:50;27.23;;;16.10;;
54945;SDS011;40846;44.788;20.486;2023-02-28T05:19:16;27.42;;;15.15;;
54945;SDS011;40846;44.788;20.486;2023-02-28T05:21:54;26.98;;;14.52;;
54945;SDS011;40846;44.788;20.486;2023-02-28T05:24:21;25.30;;;14.50;;
54945;SDS011;40846;44.788;20.486;2023-02-28T05:26:51;24.40;;;14.18;;
54945;SDS011;40846;44.788;20.486;2023-02-28T05:29:17;23.45;;;13.32;;
54945;SDS011;40846;44.788;20.486;2023-02-28T05:31:44;27.05;;;14.23;;
54945;SDS011;40846;44.788;20.486;2023-02-28T05:34:10;23.25;;;12.73;;
54945;SDS011;40846;44.788;20.486;2023-02-28T05:36:39;23.15;;;13.73;;
54945;SDS011;40846;44.788;20.486;2023-02-28T05:39:06;23.48;;;12.98;;
54945;SDS011;40846;44.788;20.486;2023-02-28T05:41:37;23.98;;;13.55;;
54945;SDS011;40846;44.788;20.486;2023-02-28T05:44:03;24.98;;;13.30;;
54945;SDS011;40846;44.788;20.486;2023-02-28T05:46:29;26.90;;;13.82;;
54945;SDS011;40846;44.788;20.486;2023-02-28T05:48:55;21.80;;;12.45;;
54945;SDS011;40846;44.788;20.486;2023-02-28T05:51:24;21.67;;;12.93;;
54945;SDS011;40846;44.788;20.486;2023-02-28T05:53:50;23.95;;;14.70;;
54945;SDS011;40846;44.788;20.486;2023-02-28T05:56:17;22.88;;;14.25;;
54945;SDS011;40846;44.788;20.486;2023-02-28T05:58:45;24.02;;;14.90;;
54945;SDS011;40846;44.788;20.486;2023-02-28T06:04:08;27.02;;;14.68;;
54945;SDS011;40846;44.788;20.486;2023-02-28T06:06:34;25.88;;;14.80;;
54945;SDS011;40846;44.788;20.486;2023-02-28T06:09:02;32.78;;;18.35;;
54945;SDS011;40846;44.788;20.486;2023-02-28T06:11:28;32.95;;;18.45;;
54945;SDS011;40846;44.788;20.486;2023-02-28T06:13:55;34.13;;;18.88;;
54945;SDS011;40846;44.788;20.486;2023-02-28T06:16:21;35.35;;;20.52;;
54945;SDS011;40846;44.788;20.486;2023-02-28T06:18:47;33.28;;;19.25;;
54945;SDS011;40846;44.788;20.486;2023-02-28T06:21:13;33.75;;;19.35;;
54945;SDS011;40846;44.788;20.486;2023-02-28T06:23:39;35.92;;;21.55;;
54945;SDS011;40846;44.788;20.486;2023-02-28T06:26:05;37.63;;;20.00;;
54945;SDS011;40846;44.788;20.486;2023-02-28T06:28:31;31.95;;;18.88;;
54945;SDS011;40846;44.788;20.486;2023-02-28T06:31:05;32.17;;;18.52;;
54945;SDS011;40846;44.788;20.486;2023-02-28T06:33:40;29.50;;;17.30;;
54945;SDS011;40846;44.788;20.486;2023-02-28T06:36:07;27.05;;;15.52;;
54945;SDS011;40846;44.788;20.486;2023-02-28T06:38:46;31.55;;;17.52;;
54945;SDS011;40846;44.788;20.486;2023-02-28T06:41:33;34.60;;;17.25;;
54945;SDS011;40846;44.788;20.486;2023-02-28T06:44:12;36.30;;;16.50;;
54945;SDS011;40846;44.788;20.486;2023-02-28T06:46:39;30.27;;;17.33;;
54945;SDS011;40846;44.788;20.486;2023-02-28T06:49:06;32.00;;;18.38;;
54945;SDS011;40846;44.788;20.486;2023-02-28T06:51:36;31.85;;;16.73;;
54945;SDS011;40846;44.788;20.486;2023-02-28T06:54:03;33.80;;;17.80;;
54945;SDS011;40846;44.788;20.486;2023-02-28T06:56:29;35.42;;;17.60;;
54945;SDS011;40846;44.788;20.486;2023-02-28T06:58:55;29.73;;;16.48;;
54945;SDS011;40846;44.788;20.486;2023-02-28T07:01:21;69.97;;;26.52;;
54945;SDS011;40846;44.788;20.486;2023-02-28T07:03:48;39.72;;;19.58;;
54945;SDS011;40846;44.788;20.486;2023-02-28T07:06:23;43.90;;;21.17;;
54945;SDS011;40846;44.788;20.486;2023-02-28T07:08:50;44.03;;;21.15;;
54945;SDS011;40846;44.788;20.486;2023-02-28T07:11:28;44.47;;;20.55;;
54945;SDS011;40846;44.788;20.486;2023-02-28T07:13:57;63.20;;;28.10;;
54945;SDS011;40846;44.788;20.486;2023-02-28T07:16:23;76.55;;;33.70;;
54945;SDS011;40846;44.788;20.486;2023-02-28T07:18:52;35.97;;;20.13;;
54945;SDS011;40846;44.788;20.486;2023-02-28T07:21:18;151.57;;;52.80;;
54945;SDS011;40846;44.788;20.486;2023-02-28T07:23:44;74.28;;;28.48;;
54945;SDS011;40846;44.788;20.486;2023-02-28T07:26:13;38.75;;;20.52;;
54945;SDS011;40846;44.788;20.486;2023-02-28T07:28:40;161.95;;;49.30;;
54945;SDS011;40846;44.788;20.486;2023-02-28T07:31:08;203.77;;;55.42;;
54945;SDS011;40846;44.788;20.486;2023-02-28T07:33:34;84.78;;;32.22;;
54945;SDS011;40846;44.788;20.486;2023-02-28T07:36:01;67.07;;;30.83;;
54945;SDS011;40846;44.788;20.486;2023-02-28T07:38:28;69.75;;;33.92;;
54945;SDS011;40846;44.788;20.486;2023-02-28T07:40:54;69.20;;;34.90;;
54945;SDS011;40846;44.788;20.486;2023-02-28T07:43:20;49.40;;;25.55;;
54945;SDS011;40846;44.788;20.486;2023-02-28T07:45:46;41.10;;;24.15;;
54945;SDS011;40846;44.788;20.486;2023-02-28T07:48:12;43.72;;;26.15;;
54945;SDS011;40846;44.788;20.486;2023-02-28T07:50:44;64.10;;;36.47;;
54945;SDS011;40846;44.788;20.486;2023-02-28T07:55:47;141.43;;;71.53;;
54945;SDS011;40846;44.788;20.486;2023-02-28T07:58:15;94.28;;;49.20;;
54945;SDS011;40846;44.788;20.486;2023-02-28T08:00:42;37.25;;;21.20;;
54945;SDS011;40846;44.788;20.486;2023-02-28T08:03:10;40.78;;;23.02;;
54945;SDS011;40846;44.788;20.486;2023-02-28T08:05:40;39.78;;;27.00;;
54945;SDS011;40846;44.788;20.486;2023-02-28T08:08:07;38.78;;;24.25;;
54945;SDS011;40846;44.788;20.486;2023-02-28T08:10:33;42.40;;;25.75;;
54945;SDS011;40846;44.788;20.486;2023-02-28T08:12:59;39.55;;;21.45;;
54945;SDS011;40846;44.788;20.486;2023-02-28T08:15:25;41.92;;;24.02;;
54945;SDS011;40846;44.788;20.486;2023-02-28T08:17:52;37.75;;;21.95;;
54945;SDS011;40846;44.788;20.486;2023-02-28T08:20:21;37.00;;;21.58;;
54945;SDS011;40846;44.788;20.486;2023-02-28T08:22:47;40.33;;;23.70;;
54945;SDS011;40846;44.788;20.486;2023-02-28T08:25:13;38.80;;;22.98;;
54945;SDS011;40846;44.788;20.486;2023-02-28T08:27:39;40.63;;;23.08;;
54945;SDS011;40846;44.788;20.486;2023-02-28T08:30:05;39.83;;;22.23;;
54945;SDS011;40846;44.788;20.486;2023-02-28T08:32:32;37.75;;;21.70;;
54945;SDS011;40846;44.788;20.486;2023-02-28T08:34:58;45.92;;;23.27;;
54945;SDS011;40846;44.788;20.486;2023-02-28T08:37:24;41.38;;;23.40;;
54945;SDS011;40846;44.788;20.486;2023-02-28T08:39:50;43.63;;;25.15;;
54945;SDS011;40846;44.788;20.486;2023-02-28T08:42:16;42.90;;;24.13;;
54945;SDS011;40846;44.788;20.486;2023-02-28T08:44:42;40.20;;;23.85;;
54945;SDS011;40846;44.788;20.486;2023-02-28T08:47:08;40.95;;;24.00;;
54945;SDS011;40846;44.788;20.486;2023-02-28T08:49:34;42.33;;;22.77;;
54945;SDS011;40846;44.788;20.486;2023-02-28T08:52:01;37.80;;;21.45;;
54945;SDS011;40846;44.788;20.486;2023-02-28T08:54:27;42.50;;;23.58;;
54945;SDS011;40846;44.788;20.486;2023-02-28T08:56:55;38.53;;;21.67;;
54945;SDS011;40846;44.788;20.486;2023-02-28T08:59:21;37.13;;;21.35;;
54945;SDS011;40846;44.788;20.486;2023-02-28T09:01:47;34.85;;;20.27;;
54945;SDS011;40846;44.788;20.486;2023-02-28T09:04:14;37.92;;;20.83;;
54945;SDS011;40846;44.788;20.486;2023-02-28T09:06:40;35.55;;;19.08;;
54945;SDS011;40846;44.788;20.486;2023-02-28T09:09:06;37.13;;;21.42;;
54945;SDS011;40846;44.788;20.486;2023-02-28T09:11:33;36.03;;;21.65;;
54945;SDS011;40846;44.788;20.486;2023-02-28T09:13:59;35.42;;;20.02;;
54945;SDS011;40846;44.788;20.486;2023-02-28T09:16:26;36.17;;;20.27;;
54945;SDS011;40846;44.788;20.486;2023-02-28T09:18:52;36.35;;;19.67;;
54945;SDS011;40846;44.788;20.486;2023-02-28T09:21:18;38.85;;;20.08;;
54945;SDS011;40846;44.788;20.486;2023-02-28T09:23:46;36.00;;;20.13;;
54945;SDS011;40846;44.788;20.486;2023-02-28T09:26:13;35.90;;;20.67;;
54945;SDS011;40846;44.788;20.486;2023-02-28T09:28:39;37.08;;;21.02;;
54945;SDS011;40846;44.788;20.486;2023-02-28T09:31:05;34.45;;;19.85;;
54945;SDS011;40846;44.788;20.486;2023-02-28T09:33:31;31.90;;;18.55;;
54945;SDS011;40846;44.788;20.486;2023-02-28T09:35:59;29.10;;;16.40;;
54945;SDS011;40846;44.788;20.486;2023-02-28T09:38:26;30.10;;;17.80;;
54945;SDS011;40846;44.788;20.486;2023-02-28T09:40:53;32.00;;;17.25;;
54945;SDS011;40846;44.788;20.486;2023-02-28T09:43:22;30.40;;;17.00;;
54945;SDS011;40846;44.788;20.486;2023-02-28T09:45:53;31.35;;;17.75;;
54945;SDS011;40846;44.788;20.486;2023-02-28T09:48:25;31.30;;;19.08;;
54945;SDS011;40846;44.788;20.486;2023-02-28T09:50:55;29.15;;;17.05;;
54945;SDS011;40846;44.788;20.486;2023-02-28T09:53:29;30.08;;;15.20;;
54945;SDS011;40846;44.788;20.486;2023-02-28T09:55:59;30.38;;;17.13;;
54945;SDS011;40846;44.788;20.486;2023-02-28T10:01:03;30.50;;;18.60;;
54945;SDS011;40846;44.788;20.486;2023-02-28T10:03:35;35.85;;;19.88;;
54945;SDS011;40846;44.788;20.486;2023-02-28T10:06:14;31.60;;;18.98;;
54945;SDS011;40846;44.788;20.486;2023-02-28T10:11:12;31.90;;;19.27;;
54945;SDS011;40846;44.788;20.486;2023-02-28T10:13:48;42.85;;;23.65;;
54945;SDS011;40846;44.788;20.486;2023-02-28T10:18:52;40.10;;;20.88;;
54945;SDS011;40846;44.788;20.486;2023-02-28T10:21:23;39.35;;;20.70;;
54945;SDS011;40846;44.788;20.486;2023-02-28T10:23:59;31.40;;;19.60;;
54945;SDS011;40846;44.788;20.486;2023-02-28T10:26:27;33.90;;;19.98;;
54945;SDS011;40846;44.788;20.486;2023-02-28T10:28:54;28.98;;;17.55;;
54945;SDS011;40846;44.788;20.486;2023-02-28T10:31:20;30.30;;;16.90;;
54945;SDS011;40846;44.788;20.486;2023-02-28T10:33:47;32.03;;;19.35;;
54945;SDS011;40846;44.788;20.486;2023-02-28T10:36:14;34.10;;;19.45;;
54945;SDS011;40846;44.788;20.486;2023-02-28T10:38:44;33.17;;;19.75;;
54945;SDS011;40846;44.788;20.486;2023-02-28T10:41:29;33.60;;;19.52;;
54945;SDS011;40846;44.788;20.486;2023-02-28T10:44:20;34.25;;;19.77;;
54945;SDS011;40846;44.788;20.486;2023-02-28T10:46:47;40.55;;;22.70;;
54945;SDS011;40846;44.788;20.486;2023-02-28T10:49:17;35.15;;;21.60;;
54945;SDS011;40846;44.788;20.486;2023-02-28T10:51:43;49.03;;;26.33;;
54945;SDS011;40846;44.788;20.486;2023-02-28T10:54:22;67.03;;;27.25;;
54945;SDS011;40846;44.788;20.486;2023-02-28T10:59:37;39.83;;;21.45;;
54945;SDS011;40846;44.788;20.486;2023-02-28T11:02:28;147.73;;;48.47;;
54945;SDS011;40846;44.788;20.486;2023-02-28T11:04:50;98.45;;;37.22;;
54945;SDS011;40846;44.788;20.486;2023-02-28T11:07:20;84.15;;;34.03;;
54945;SDS011;40846;44.788;20.486;2023-02-28T11:09:53;59.33;;;28.60;;
54945;SDS011;40846;44.788;20.486;2023-02-28T11:12:21;113.07;;;40.95;;
54945;SDS011;40846;44.788;20.486;2023-02-28T11:14:49;104.47;;;39.92;;
54945;SDS011;40846;44.788;20.486;2023-02-28T11:17:49;117.32;;;46.00;;
54945;SDS011;40846;44.788;20.486;2023-02-28T11:20:10;64.68;;;33.08;;
54945;SDS011;40846;44.788;20.486;2023-02-28T11:22:45;87.38;;;41.83;;
54945;SDS011;40846;44.788;20.486;2023-02-28T11:25:22;48.25;;;25.90;;
54945;SDS011;40846;44.788;20.486;2023-02-28T11:27:50;73.22;;;37.58;;
54945;SDS011;40846;44.788;20.486;2023-02-28T11:32:49;46.93;;;25.40;;
54945;SDS011;40846;44.788;20.486;2023-02-28T11:35:21;143.20;;;62.33;;
54945;SDS011;40846;44.788;20.486;2023-02-28T11:37:48;75.00;;;38.05;;
54945;SDS011;40846;44.788;20.486;2023-02-28T11:40:15;54.17;;;27.63;;
54945;SDS011;40846;44.788;20.486;2023-02-28T11:45:12;63.10;;;33.33;;
54945;SDS011;40846;44.788;20.486;2023-02-28T11:47:53;40.97;;;24.65;;
54945;SDS011;40846;44.788;20.486;2023-02-28T11:52:52;56.75;;;31.95;;
54945;SDS011;40846;44.788;20.486;2023-02-28T12:03:19;47.58;;;26.70;;
54945;SDS011;40846;44.788;20.486;2023-02-28T12:06:01;85.88;;;44.22;;
54945;SDS011;40846;44.788;20.486;2023-02-28T12:08:47;82.28;;;42.90;;
54945;SDS011;40846;44.788;20.486;2023-02-28T12:11:35;66.97;;;36.20;;
54945;SDS011;40846;44.788;20.486;2023-02-28T12:16:53;63.83;;;32.05;;
54945;SDS011;40846;44.788;20.486;2023-02-28T12:20:08;55.30;;;29.85;;
54945;SDS011;40846;44.788;20.486;2023-02-28T12:25:03;52.00;;;29.98;;
54945;SDS011;40846;44.788;20.486;2023-02-28T12:27:33;48.78;;;27.17;;
54945;SDS011;40846;44.788;20.486;2023-02-28T12:32:46;89.68;;;35.63;;
54945;SDS011;40846;44.788;20.486;2023-02-28T12:35:28;60.30;;;28.05;;
54945;SDS011;40846;44.788;20.486;2023-02-28T12:38:01;49.83;;;25.92;;
54945;SDS011;40846;44.788;20.486;2023-02-28T12:40:34;79.57;;;38.95;;
54945;SDS011;40846;44.788;20.486;2023-02-28T12:43:07;73.28;;;37.78;;
54945;SDS011;40846;44.788;20.486;2023-02-28T12:48:00;80.20;;;36.67;;
54945;SDS011;40846;44.788;20.486;2023-02-28T12:50:28;47.80;;;27.02;;
54945;SDS011;40846;44.788;20.486;2023-02-28T13:00:22;66.05;;;30.10;;
54945;SDS011;40846;44.788;20.486;2023-02-28T13:11:02;35.72;;;19.60;;
54945;SDS011;40846;44.788;20.486;2023-02-28T13:13:29;44.25;;;21.60;;
54945;SDS011;40846;44.788;20.486;2023-02-28T13:15:57;43.30;;;24.65;;
54945;SDS011;40846;44.788;20.486;2023-02-28T13:18:31;43.25;;;24.52;;
54945;SDS011;40846;44.788;20.486;2023-02-28T13:20:58;44.50;;;24.48;;
54945;SDS011;40846;44.788;20.486;2023-02-28T13:23:39;41.97;;;24.17;;
54945;SDS011;40846;44.788;20.486;2023-02-28T13:26:05;37.90;;;22.77;;
54945;SDS011;40846;44.788;20.486;2023-02-28T13:31:30;49.65;;;29.42;;
54945;SDS011;40846;44.788;20.486;2023-02-28T13:34:05;41.90;;;25.85;;
54945;SDS011;40846;44.788;20.486;2023-02-28T13:36:32;40.15;;;23.55;;
54945;SDS011;40846;44.788;20.486;2023-02-28T13:38:59;37.83;;;22.55;;
54945;SDS011;40846;44.788;20.486;2023-02-28T13:44:04;50.20;;;23.60;;
54945;SDS011;40846;44.788;20.486;2023-02-28T13:46:31;47.38;;;26.20;;
54945;SDS011;40846;44.788;20.486;2023-02-28T13:51:43;46.25;;;25.08;;
54945;SDS011;40846;44.788;20.486;2023-02-28T13:57:07;53.58;;;29.05;;
54945;SDS011;40846;44.788;20.486;2023-02-28T13:59:33;50.40;;;28.77;;
54945;SDS011;40846;44.788;20.486;2023-02-28T14:02:03;57.60;;;31.40;;
54945;SDS011;40846;44.788;20.486;2023-02-28T14:07:09;39.42;;;23.00;;
54945;SDS011;40846;44.788;20.486;2023-02-28T14:09:44;40.33;;;19.88;;
54945;SDS011;40846;44.788;20.486;2023-02-28T14:14:56;30.05;;;16.95;;
54945;SDS011;40846;44.788;20.486;2023-02-28T14:17:23;30.98;;;15.57;;
54945;SDS011;40846;44.788;20.486;2023-02-28T14:19:50;32.65;;;16.05;;
54945;SDS011;40846;44.788;20.486;2023-02-28T14:32:54;24.33;;;14.27;;
54945;SDS011;40846;44.788;20.486;2023-02-28T14:38:13;24.90;;;14.18;;
54945;SDS011;40846;44.788;20.486;2023-02-28T14:40:41;27.85;;;16.17;;
54945;SDS011;40846;44.788;20.486;2023-02-28T14:43:18;28.30;;;14.88;;
54945;SDS011;40846;44.788;20.486;2023-02-28T14:45:48;27.85;;;15.48;;
54945;SDS011;40846;44.788;20.486;2023-02-28T14:48:14;33.10;;;20.63;;
54945;SDS011;40846;44.788;20.486;2023-02-28T14:50:41;26.52;;;16.27;;
54945;SDS011;40846;44.788;20.486;2023-02-28T14:53:15;21.58;;;13.45;;
54945;SDS011;40846;44.788;20.486;2023-02-28T14:55:44;31.48;;;18.33;;
54945;SDS011;40846;44.788;20.486;2023-02-28T14:58:27;38.35;;;19.15;;
54945;SDS011;40846;44.788;20.486;2023-02-28T15:00:54;36.25;;;19.98;;
54945;SDS011;40846;44.788;20.486;2023-02-28T15:03:31;29.75;;;16.35;;
54945;SDS011;40846;44.788;20.486;2023-02-28T15:05:58;24.80;;;14.75;;
54945;SDS011;40846;44.788;20.486;2023-02-28T15:08:25;28.67;;;14.35;;
54945;SDS011;40846;44.788;20.486;2023-02-28T15:10:55;29.20;;;15.65;;
54945;SDS011;40846;44.788;20.486;2023-02-28T15:13:23;25.90;;;15.13;;
54945;SDS011;40846;44.788;20.486;2023-02-28T15:15:56;29.00;;;16.58;;
54945;SDS011;40846;44.788;20.486;2023-02-28T15:18:26;23.85;;;14.20;;
54945;SDS011;40846;44.788;20.486;2023-02-28T15:20:55;25.90;;;13.27;;
54945;SDS011;40846;44.788;20.486;2023-02-28T15:23:22;26.35;;;13.05;;
54945;SDS011;40846;44.788;20.486;2023-02-28T15:25:48;22.58;;;13.25;;
54945;SDS011;40846;44.788;20.486;2023-02-28T15:28:16;25.30;;;14.27;;
54945;SDS011;40846;44.788;20.486;2023-02-28T15:33:36;27.00;;;15.95;;
54945;SDS011;40846;44.788;20.486;2023-02-28T15:36:10;25.20;;;14.30;;
54945;SDS011;40846;44.788;20.486;2023-02-28T15:38:37;24.35;;;14.57;;
54945;SDS011;40846;44.788;20.486;2023-02-28T15:41:03;28.95;;;15.95;;
54945;SDS011;40846;44.788;20.486;2023-02-28T15:43:36;28.55;;;14.45;;
54945;SDS011;40846;44.788;20.486;2023-02-28T15:46:06;32.05;;;16.95;;
54945;SDS011;40846;44.788;20.486;2023-02-28T15:48:35;32.55;;;16.33;;
54945;SDS011;40846;44.788;20.486;2023-02-28T15:53:32;45.38;;;20.70;;
54945;SDS011;40846;44.788;20.486;2023-02-28T15:56:03;37.08;;;19.45;;
54945;SDS011;40846;44.788;20.486;2023-02-28T15:58:29;42.35;;;18.17;;
54945;SDS011;40846;44.788;20.486;2023-02-28T16:01:06;26.02;;;15.02;;
54945;SDS011;40846;44.788;20.486;2023-02-28T16:03:54;48.83;;;22.88;;
54945;SDS011;40846;44.788;20.486;2023-02-28T16:08:48;71.18;;;28.98;;
54945;SDS011;40846;44.788;20.486;2023-02-28T16:11:16;32.00;;;18.13;;
54945;SDS011;40846;44.788;20.486;2023-02-28T16:13:42;66.68;;;27.90;;
54945;SDS011;40846;44.788;20.486;2023-02-28T16:16:14;76.32;;;32.08;;
54945;SDS011;40846;44.788;20.486;2023-02-28T16:18:40;180.85;;;64.28;;
54945;SDS011;40846;44.788;20.486;2023-02-28T16:21:06;69.22;;;30.90;;
54945;SDS011;40846;44.788;20.486;2023-02-28T16:23:32;46.58;;;23.23;;
54945;SDS011;40846;44.788;20.486;2023-02-28T16:25:58;41.30;;;22.13;;
54945;SDS011;40846;44.788;20.486;2023-02-28T16:28:25;36.08;;;20.05;;
54945;SDS011;40846;44.788;20.486;2023-02-28T16:30:56;97.00;;;38.30;;
54945;SDS011;40846;44.788;20.486;2023-02-28T16:33:22;107.25;;;42.67;;
54945;SDS011;40846;44.788;20.486;2023-02-28T16:35:49;52.60;;;25.15;;
54945;SDS011;40846;44.788;20.486;2023-02-28T16:38:15;95.38;;;42.33;;
54945;SDS011;40846;44.788;20.486;2023-02-28T16:40:41;170.18;;;83.03;;
54945;SDS011;40846;44.788;20.486;2023-02-28T16:43:09;118.55;;;61.35;;